Time;durP1;ratioP1;P1;durP2;ratioP2;P2;SDS_P1;SDS_P2;PMS_P1;PMS_P2;Temp;Humidity;BMP_temperature;BMP_pressure;BME280_temperature;BME280_humidity;BME280_pressure;Samples;Min_cycle;Max_cycle;Signal;HPM_P1;HPM_P2
2022/09/09 00:00:22;;;;;;;3.92;2.38;;;;;;;15.37;100.00;100651.53;5070930;28;20066;-58
2022/09/09 00:02:56;;;;;;;4.80;2.78;;;;;;;15.29;100.00;100646.91;5070777;28;20121;-57
2022/09/09 00:05:30;;;;;;;5.47;3.13;;;;;;;15.26;100.00;100647.19;5070746;28;20753;-58
2022/09/09 00:08:03;;;;;;;5.60;3.05;;;;;;;15.18;100.00;100634.63;5070684;28;20052;-58
2022/09/09 00:10:33;;;;;;;7.22;3.22;;;;;;;15.18;100.00;100634.63;5070349;28;20048;-57
2022/09/09 00:13:19;;;;;;;6.53;3.67;;;;;;;15.09;100.00;100632.75;5070453;28;20175;-58
2022/09/09 00:15:58;;;;;;;7.90;3.13;;;;;;;15.18;100.00;100633.78;5070692;28;20052;-58
2022/09/09 00:18:33;;;;;;;8.95;3.92;;;;;;;15.12;100.00;100623.72;5072819;28;20052;-58
2022/09/09 00:21:07;;;;;;;8.02;4.00;;;;;;;15.10;100.00;100628.31;5073114;28;20431;-57
2022/09/09 00:23:39;;;;;;;6.90;3.75;;;;;;;15.16;100.00;100625.97;5072859;28;20106;-56
2022/09/09 00:26:13;;;;;;;6.75;3.60;;;;;;;15.22;100.00;100627.25;5072769;28;20059;-55
2022/09/09 00:28:51;;;;;;;8.85;3.90;;;;;;;15.06;100.00;100633.03;5071508;28;20406;-57
2022/09/09 00:31:26;;;;;;;7.00;3.63;;;;;;;15.07;100.00;100629.44;5072675;28;20052;-55
2022/09/09 00:33:56;;;;;;;6.72;3.22;;;;;;;15.20;100.00;100631.81;5072797;28;20052;-55
2022/09/09 00:36:28;;;;;;;6.97;3.80;;;;;;;15.14;100.00;100638.50;5072656;28;20044;-57
2022/09/09 00:39:00;;;;;;;5.90;3.00;;;;;;;15.21;100.00;100633.50;5072280;28;20056;-56
2022/09/09 00:41:45;;;;;;;5.43;3.00;;;;;;;15.18;100.00;100637.25;5072618;28;20102;-53
2022/09/09 00:44:26;;;;;;;5.85;3.20;;;;;;;15.36;100.00;100637.44;5072570;28;20131;-57
2022/09/09 00:47:19;;;;;;;7.05;2.90;;;;;;;15.32;100.00;100627.25;5071219;28;20084;-55
2022/09/09 00:50:01;;;;;;;7.75;3.00;;;;;;;15.21;100.00;100625.56;5072256;28;20048;-57
2022/09/09 00:52:40;;;;;;;5.15;2.90;;;;;;;15.14;100.00;100619.97;5072385;28;20067;-57
2022/09/09 00:55:18;;;;;;;7.30;2.88;;;;;;;15.01;100.00;100625.50;5072503;28;20147;-54
2022/09/09 00:57:52;;;;;;;6.13;2.70;;;;;;;14.94;100.00;100621.69;5072430;28;20079;-58
2022/09/09 01:00:24;;;;;;;6.47;2.60;;;;;;;14.96;100.00;100619.78;5072206;28;20070;-57
2022/09/09 01:03:20;;;;;;;6.65;2.75;;;;;;;14.92;100.00;100618.38;5072265;28;20041;-56
2022/09/09 01:05:59;;;;;;;5.45;2.30;;;;;;;14.93;100.00;100620.06;5072220;28;20044;-55
2022/09/09 01:08:50;;;;;;;5.75;2.35;;;;;;;14.88;100.00;100614.31;5072238;28;20709;-55
2022/09/09 01:11:22;;;;;;;5.20;2.20;;;;;;;14.81;100.00;100621.94;5072184;28;20058;-55
2022/09/09 01:13:54;;;;;;;;;;;;;;;14.82;100.00;100622.78;5071524;28;20551;-57
2022/09/09 01:16:22;;;;;;;7.85;2.30;;;;;;;14.79;100.00;100621.25;5072218;28;19959;-57
2022/09/09 01:18:54;;;;;;;6.22;2.65;;;;;;;14.86;100.00;100610.94;5072297;28;20065;-57
2022/09/09 01:21:33;;;;;;;6.53;2.58;;;;;;;14.73;100.00;100624.41;5072080;28;20048;-58
2022/09/09 01:24:20;;;;;;;4.93;2.70;;;;;;;14.73;100.00;100631.53;5072076;28;20115;-57
2022/09/09 01:26:53;;;;;;;6.45;3.15;;;;;;;14.62;100.00;100624.47;5072189;28;20575;-57
2022/09/09 01:29:23;;;;;;;7.53;3.20;;;;;;;14.66;100.00;100623.28;5071970;28;20056;-57
2022/09/09 01:31:56;;;;;;;5.88;2.95;;;;;;;14.67;100.00;100624.94;5104586;28;20079;-56
2022/09/09 01:34:27;;;;;;;7.95;2.58;;;;;;;14.60;100.00;100626.41;5071861;28;20037;-58
2022/09/09 01:37:01;;;;;;;5.88;2.83;;;;;;;14.50;100.00;100623.72;5072056;28;20098;-57
2022/09/09 01:39:29;;;;;;;6.28;2.67;;;;;;;14.43;100.00;100617.28;5071731;28;20131;-57
2022/09/09 01:41:59;;;;;;;5.07;2.55;;;;;;;14.46;100.00;100625.78;5072018;28;20553;-57
2022/09/09 01:44:28;;;;;;;4.88;2.60;;;;;;;14.51;100.00;100615.63;5071882;28;20131;-57
2022/09/09 01:46:56;;;;;;;4.72;2.50;;;;;;;14.55;100.00;100621.53;5072235;28;20499;-56
2022/09/09 01:49:24;;;;;;;5.35;2.60;;;;;;;14.48;100.00;100623.84;5072335;28;20052;-57
2022/09/09 01:51:54;;;;;;;5.07;2.25;;;;;;;14.48;100.00;100615.06;5074620;28;20082;-57
2022/09/09 01:54:29;;;;;;;4.82;2.45;;;;;;;14.48;100.00;100626.50;5075647;28;20097;-56
2022/09/09 01:57:10;;;;;;;5.05;2.53;;;;;;;14.45;100.00;100620.63;5075953;28;20460;-56
2022/09/09 01:59:51;;;;;;;4.80;2.40;;;;;;;14.44;100.00;100614.50;5074462;28;20408;-56
2022/09/09 02:02:22;;;;;;;5.07;2.58;;;;;;;14.42;100.00;100612.94;5075782;28;20049;-57
2022/09/09 02:04:55;;;;;;;6.60;2.80;;;;;;;14.33;100.00;100607.47;5075473;28;20396;-56
2022/09/09 02:07:40;;;;;;;5.65;2.33;;;;;;;14.30;100.00;100612.16;5075613;28;20407;-57
2022/09/09 02:10:12;;;;;;;8.43;2.97;;;;;;;14.36;100.00;100617.78;5075234;28;20047;-56
2022/09/09 02:12:46;;;;;;;6.22;2.80;;;;;;;14.25;100.00;100611.72;5075542;28;20539;-54
2022/09/09 02:15:21;;;;;;;5.15;2.83;;;;;;;14.15;100.00;100612.50;5075357;28;20086;-56
2022/09/09 02:17:53;;;;;;;7.65;3.22;;;;;;;14.06;100.00;100610.63;5075598;28;20102;-55
2022/09/09 02:20:24;;;;;;;7.85;3.28;;;;;;;14.04;100.00;100609.91;5075563;28;20048;-57
2022/09/09 02:22:53;;;;;;;7.15;2.88;;;;;;;14.01;100.00;100610.16;5075552;28;20376;-57
2022/09/09 02:25:27;;;;;;;6.57;2.85;;;;;;;14.05;100.00;100605.47;5074835;28;20051;-55
2022/09/09 02:27:58;;;;;;;7.63;3.03;;;;;;;13.93;100.00;100609.97;5074898;28;20055;-54
2022/09/09 02:30:30;;;;;;;5.10;2.90;;;;;;;13.97;100.00;100606.94;5074765;28;20258;-55
2022/09/09 02:33:02;;;;;;;5.60;2.70;;;;;;;13.99;100.00;100605.00;5074600;28;20048;-55
2022/09/09 02:35:31;;;;;;;6.60;3.20;;;;;;;14.07;100.00;100599.09;5074758;28;20421;-55
2022/09/09 02:38:05;;;;;;;6.55;3.22;;;;;;;13.92;100.00;100603.00;5074376;28;20127;-53
2022/09/09 02:40:33;;;;;;;7.22;2.83;;;;;;;13.94;100.00;100607.19;5074420;28;20068;-55
2022/09/09 02:43:02;;;;;;;6.60;2.90;;;;;;;13.84;100.00;100603.66;5074408;28;20044;-54
2022/09/09 02:45:37;;;;;;;8.57;3.28;;;;;;;13.81;100.00;100595.97;5074175;28;20051;-55
2022/09/09 02:48:13;;;;;;;5.50;3.00;;;;;;;13.85;100.00;100590.31;5074110;28;20064;-55
2022/09/09 02:50:50;;;;;;;6.35;3.22;;;;;;;13.93;100.00;100592.28;5074225;28;20054;-56
2022/09/09 02:53:21;;;;;;;7.43;3.60;;;;;;;13.98;100.00;100587.47;5073980;28;20048;-55
2022/09/09 02:55:56;;;;;;;6.65;3.03;;;;;;;13.89;100.00;100598.81;5074483;28;20048;-57
2022/09/09 02:58:26;;;;;;;6.32;3.50;;;;;;;13.86;100.00;100599.06;5074784;28;20044;-56
2022/09/09 03:00:54;;;;;;;5.57;3.00;;;;;;;13.79;100.00;100589.97;5074366;28;20102;-55
2022/09/09 03:03:22;;;;;;;7.70;3.53;;;;;;;13.78;100.00;100596.22;5074508;28;20574;-55
2022/09/09 03:05:52;;;;;;;8.35;3.65;;;;;;;13.70;100.00;100588.91;5074610;28;20040;-55
2022/09/09 03:08:20;;;;;;;7.80;3.28;;;;;;;13.68;100.00;100594.31;5074645;28;20051;-56
2022/09/09 03:10:49;;;;;;;7.57;3.53;;;;;;;13.68;100.00;100591.69;5074308;28;20083;-55
2022/09/09 03:13:19;;;;;;;7.57;3.38;;;;;;;13.62;100.00;100594.84;5074503;28;20052;-56
2022/09/09 03:15:49;;;;;;;7.53;3.30;;;;;;;13.57;100.00;100591.75;5074218;28;20052;-55
2022/09/09 03:18:18;;;;;;;6.88;3.55;;;;;;;13.55;100.00;100606.88;5074482;28;20493;-55
2022/09/09 03:20:48;;;;;;;6.53;3.47;;;;;;;13.53;100.00;100608.81;5074278;28;20094;-57
2022/09/09 03:23:16;;;;;;;9.00;3.95;;;;;;;13.58;100.00;100606.63;5074378;28;20094;-57
2022/09/09 03:25:48;;;;;;;8.35;3.42;;;;;;;13.60;100.00;100607.34;5073897;28;20128;-55
2022/09/09 03:28:16;;;;;;;8.25;3.58;;;;;;;13.57;100.00;100604.13;5074135;28;20102;-55
2022/09/09 03:30:44;;;;;;;6.03;3.42;;;;;;;13.64;100.00;100606.13;5073995;28;20040;-56
2022/09/09 03:33:14;;;;;;;9.18;3.40;;;;;;;13.58;100.00;100606.63;5074122;28;20098;-55
2022/09/09 03:35:48;;;;;;;9.82;3.95;;;;;;;13.62;100.00;100594.84;5073691;28;20584;-56
2022/09/09 03:38:16;;;;;;;9.70;4.10;;;;;;;13.53;100.00;100606.16;5074021;28;20072;-56
2022/09/09 03:40:51;;;;;;;7.50;3.75;;;;;;;13.53;100.00;100604.34;5073592;28;20102;-53
2022/09/09 03:43:19;;;;;;;7.50;4.25;;;;;;;13.51;100.00;100598.38;5073851;28;20094;-57
2022/09/09 03:45:48;;;;;;;8.60;3.85;;;;;;;13.49;100.00;100595.00;5073580;28;20049;-53
2022/09/09 03:48:19;;;;;;;7.25;3.83;;;;;;;13.53;100.00;100598.25;5073570;28;20060;-54
2022/09/09 03:50:47;;;;;;;6.78;3.70;;;;;;;13.55;100.00;100598.09;5073981;28;20048;-54
2022/09/09 03:53:19;;;;;;;8.60;3.72;;;;;;;13.55;100.00;100596.28;5073465;28;20131;-55
2022/09/09 03:55:48;;;;;;;11.75;3.92;;;;;;;13.62;100.00;100602.78;5073731;28;20470;-55
2022/09/09 03:58:18;;;;;;;8.80;4.13;;;;;;;13.59;100.00;100586.31;5073428;28;20573;-57
2022/09/09 04:00:54;;;;;;;8.75;4.57;;;;;;;13.65;100.00;100597.22;5073500;28;20048;-52
2022/09/09 04:03:25;;;;;;;12.02;4.45;;;;;;;13.60;100.00;100604.69;5073242;28;20404;-55
2022/09/09 04:05:56;;;;;;;9.00;4.00;;;;;;;13.61;100.00;100601.09;5073243;28;20045;-55
2022/09/09 04:08:25;;;;;;;6.78;3.65;;;;;;;13.67;100.00;100600.59;5072028;28;20052;-55
2022/09/09 04:10:57;;;;;;;9.07;4.18;;;;;;;13.68;100.00;100594.31;5073203;28;20041;-56
2022/09/09 04:13:26;;;;;;;12.32;4.07;;;;;;;13.66;100.00;100593.63;5072381;28;20048;-54
2022/09/09 04:15:56;;;;;;;7.25;4.38;;;;;;;13.70;100.00;100594.19;5071461;28;20040;-51
2022/09/09 04:18:26;;;;;;;9.82;4.05;;;;;;;13.78;100.00;100590.94;5072698;28;20053;-54
2022/09/09 04:20:55;;;;;;;9.98;3.97;;;;;;;13.76;100.00;100588.41;5073027;28;20102;-52
2022/09/09 04:23:24;;;;;;;9.50;4.82;;;;;;;13.77;100.00;100583.97;5073173;28;20487;-55
2022/09/09 04:25:53;;;;;;;8.60;4.50;;;;;;;13.82;100.00;100587.91;5072906;28;20131;-55
2022/09/09 04:28:24;;;;;;;9.13;4.18;;;;;;;13.85;100.00;100581.53;5072916;28;20502;-55
2022/09/09 04:30:52;;;;;;;7.65;4.38;;;;;;;13.84;100.00;100574.59;5105757;28;20052;-56
2022/09/09 04:33:20;;;;;;;8.68;4.18;;;;;;;13.86;100.00;100572.63;5072939;28;20498;-54
2022/09/09 04:35:53;;;;;;;9.57;4.22;;;;;;;13.91;100.00;100578.38;5072751;28;20048;-56
2022/09/09 04:38:23;;;;;;;7.93;3.80;;;;;;;13.98;100.00;100568.13;5072795;28;20039;-52
2022/09/09 04:40:53;;;;;;;7.95;4.13;;;;;;;13.97;100.00;100569.91;5072609;28;20045;-53
2022/09/09 04:43:22;;;;;;;7.35;3.90;;;;;;;13.95;100.00;100579.81;5072696;28;20084;-52
2022/09/09 04:45:51;;;;;;;10.50;3.70;;;;;;;14.03;100.00;100576.53;5072734;28;20039;-54
2022/09/09 04:48:20;;;;;;;9.27;4.00;;;;;;;14.10;100.00;100580.31;5072209;28;20435;-55
2022/09/09 04:50:57;;;;;;;7.47;4.10;;;;;;;14.09;100.00;100567.22;5071862;28;20139;-56
2022/09/09 04:53:26;;;;;;;8.80;4.22;;;;;;;14.08;100.00;100576.13;5071972;28;20106;-56
2022/09/09 04:55:54;;;;;;;8.40;4.90;;;;;;;14.07;100.00;100575.31;5070496;28;20045;-55
2022/09/09 04:58:23;;;;;;;8.98;3.95;;;;;;;14.10;100.00;100572.38;5071750;28;20548;-56
2022/09/09 05:00:52;;;;;;;9.50;4.43;;;;;;;14.14;100.00;100571.16;5071577;28;20052;-56
2022/09/09 05:03:20;;;;;;;13.80;4.43;;;;;;;14.15;100.00;100572.00;5070218;28;20044;-56
2022/09/09 05:05:48;;;;;;;10.25;4.63;;;;;;;14.20;100.00;100577.72;5071520;28;20373;-56
2022/09/09 05:08:17;;;;;;;10.07;4.35;;;;;;;14.18;100.00;100569.94;5071327;28;20135;-56
2022/09/09 05:10:45;;;;;;;8.40;4.40;;;;;;;14.22;100.00;100567.88;5071386;28;20049;-52
2022/09/09 05:13:14;;;;;;;9.57;4.40;;;;;;;14.22;100.00;100561.72;5071275;28;20052;-54
2022/09/09 05:15:43;;;;;;;7.97;4.47;;;;;;;14.28;100.00;100569.97;5071119;28;20480;-57
2022/09/09 05:18:10;;;;;;;13.40;4.75;;;;;;;14.26;100.00;100566.66;5071438;28;20079;-55
2022/09/09 05:20:39;;;;;;;9.93;4.75;;;;;;;14.27;100.00;100554.25;5071210;28;20036;-54
2022/09/09 05:23:07;;;;;;;9.98;4.85;;;;;;;14.28;100.00;100555.94;5070921;28;20052;-55
2022/09/09 05:25:36;;;;;;;9.90;4.28;;;;;;;14.33;100.00;100554.56;5070120;28;20140;-55
2022/09/09 05:28:05;;;;;;;11.55;4.82;;;;;;;14.39;100.00;100558.47;5071095;28;20083;-55
2022/09/09 05:30:33;;;;;;;11.95;4.15;;;;;;;14.39;100.00;100565.59;5071063;28;20455;-55
2022/09/09 05:33:01;;;;;;;9.60;4.93;;;;;;;14.39;100.00;100560.31;5071025;28;20072;-55
2022/09/09 05:35:29;;;;;;;8.75;4.28;;;;;;;14.44;100.00;100566.00;5071147;28;20044;-56
2022/09/09 05:38:01;;;;;;;9.93;4.22;;;;;;;14.48;100.00;100559.50;5069807;28;20047;-56
2022/09/09 05:40:30;;;;;;;11.57;4.70;;;;;;;14.52;100.00;100569.69;5071365;28;20511;-54
2022/09/09 05:43:02;;;;;;;9.68;4.63;;;;;;;14.56;100.00;100558.84;5071049;28;20032;-56
2022/09/09 05:45:30;;;;;;;10.68;4.30;;;;;;;14.59;100.00;100558.56;5070847;28;20048;-56
2022/09/09 05:47:59;;;;;;;11.55;4.03;;;;;;;14.57;100.00;100561.34;5032035;28;1112237;-56
2022/09/09 05:50:28;;;;;;;11.82;4.97;;;;;;;14.61;100.00;100561.94;5071800;28;20046;-56
2022/09/09 05:52:58;;;;;;;12.52;4.50;;;;;;;14.61;100.00;100567.22;5071834;28;20051;-56
2022/09/09 05:55:27;;;;;;;10.82;3.90;;;;;;;14.59;100.00;100562.06;5071963;28;20434;-57
2022/09/09 05:57:55;;;;;;;9.68;3.95;;;;;;;14.61;100.00;100565.41;5071786;28;20174;-56
2022/09/09 06:00:26;;;;;;;10.02;4.20;;;;;;;14.62;100.00;100559.16;5071608;28;20478;-56
2022/09/09 06:02:54;;;;;;;9.57;3.92;;;;;;;14.66;100.00;100565.06;5071748;28;20122;-56
2022/09/09 06:05:22;;;;;;;9.77;4.00;;;;;;;14.67;100.00;100564.06;5070400;28;20415;-54
2022/09/09 06:07:53;;;;;;;10.25;4.22;;;;;;;14.77;100.00;100564.13;5071477;28;20052;-55
2022/09/09 06:10:22;;;;;;;9.43;4.07;;;;;;;14.76;100.00;100560.63;5071592;28;20048;-55
2022/09/09 06:12:50;;;;;;;10.48;4.47;;;;;;;14.77;100.00;100562.31;5071889;28;20427;-56
2022/09/09 06:15:17;;;;;;;9.35;3.78;;;;;;;14.90;100.00;100558.56;5071620;28;20106;-56
2022/09/09 06:17:47;;;;;;;11.82;4.70;;;;;;;14.98;100.00;100554.28;5071530;28;20044;-57
2022/09/09 06:20:15;;;;;;;9.52;3.65;;;;;;;15.00;100.00;100562.09;5071693;28;20575;-57
2022/09/09 06:22:45;;;;;;;12.82;4.25;;;;;;;15.06;100.00;100558.06;5071316;28;20040;-57
2022/09/09 06:25:14;;;;;;;13.00;4.82;;;;;;;15.14;100.00;100560.88;5071446;28;20060;-55
2022/09/09 06:27:42;;;;;;;11.65;4.50;;;;;;;15.18;100.00;100560.44;5070302;28;20187;-56
2022/09/09 06:30:11;;;;;;;7.80;3.42;;;;;;;15.23;100.00;100570.66;5071476;28;20079;-57
2022/09/09 06:32:39;;;;;;;14.73;3.90;;;;;;;15.29;100.00;100570.09;5071453;28;20051;-57
2022/09/09 06:35:09;;;;;;;10.32;3.70;;;;;;;15.33;100.00;100571.50;5071975;28;20123;-56
2022/09/09 06:37:37;;;;;;;10.50;3.92;;;;;;;15.40;100.00;100568.31;5074965;28;20534;-58
2022/09/09 06:40:06;;;;;;;11.35;3.47;;;;;;;15.44;100.00;100572.34;5075033;28;20480;-57
2022/09/09 06:42:35;;;;;;;14.73;3.63;;;;;;;15.45;100.00;100571.38;5073458;28;20079;-57
2022/09/09 06:45:03;;;;;;;9.60;3.35;;;;;;;15.51;100.00;100565.50;5074884;28;20048;-58
2022/09/09 06:47:32;;;;;;;9.98;3.00;;;;;;;15.53;100.00;100568.88;5074663;28;20080;-57
2022/09/09 06:50:00;;;;;;;11.25;3.00;;;;;;;15.52;100.00;100572.50;5073517;28;20084;-56
2022/09/09 06:52:29;;;;;;;12.25;2.92;;;;;;;15.61;100.00;100569.00;5074511;28;20062;-58
2022/09/09 06:54:58;;;;;;;11.48;3.35;;;;;;;15.72;100.00;100571.50;5074831;28;20040;-58
2022/09/09 06:57:26;;;;;;;8.18;2.83;;;;;;;15.78;100.00;100564.81;5074476;28;20106;-58
2022/09/09 07:00:05;;;;;;;10.13;3.22;;;;;;;15.82;100.00;100563.59;5074695;28;20049;-56
2022/09/09 07:02:38;;;;;;;10.15;3.15;;;;;;;15.89;100.00;100569.16;5074489;28;20430;-58
2022/09/09 07:05:07;;;;;;;9.25;2.85;;;;;;;15.97;100.00;100571.13;5074472;28;20043;-57
2022/09/09 07:07:37;;;;;;;14.38;3.63;;;;;;;16.07;100.00;100565.78;5074288;28;20127;-57
2022/09/09 07:10:07;;;;;;;12.95;3.55;;;;;;;16.20;100.00;100567.16;5074415;28;20053;-58
2022/09/09 07:12:35;;;;;;;9.82;2.78;;;;;;;16.27;100.00;100570.06;5074216;28;20064;-57
2022/09/09 07:15:03;;;;;;;10.65;2.95;;;;;;;16.37;100.00;100570.88;5074531;28;20494;-58
2022/09/09 07:17:31;;;;;;;8.32;2.67;;;;;;;16.51;100.00;100574.03;5074153;28;20040;-58
2022/09/09 07:19:59;;;;;;;9.55;2.65;;;;;;;16.58;100.00;100575.16;5074135;28;20123;-58
2022/09/09 07:22:29;;;;;;;11.07;3.33;;;;;;;16.72;100.00;100565.84;5073940;28;20075;-58
2022/09/09 07:24:58;;;;;;;10.45;2.85;;;;;;;16.87;100.00;100558.25;5074146;28;20045;-59
2022/09/09 07:27:26;;;;;;;11.02;3.55;;;;;;;16.84;100.00;100571.81;5072581;28;20400;-58
2022/09/09 07:29:54;;;;;;;9.48;3.10;;;;;;;16.96;100.00;100570.66;5073963;28;20046;-58
2022/09/09 07:32:22;;;;;;;10.88;2.78;;;;;;;17.07;100.00;100572.28;5073901;28;20040;-59
2022/09/09 07:34:51;;;;;;;9.32;3.13;;;;;;;17.13;100.00;100568.19;5074099;28;20079;-59
2022/09/09 07:37:19;;;;;;;9.50;3.00;;;;;;;17.06;100.00;100578.56;5074162;28;20550;-58
2022/09/09 07:39:47;;;;;;;8.93;2.67;;;;;;;17.04;100.00;100576.06;5073822;28;20075;-59
2022/09/09 07:42:16;;;;;;;9.38;2.92;;;;;;;17.22;100.00;100569.97;5073728;28;20044;-59
2022/09/09 07:44:44;;;;;;;11.30;2.95;;;;;;;17.30;100.00;100570.03;5073789;28;20136;-59
2022/09/09 07:47:12;;;;;;;10.07;2.95;;;;;;;17.38;100.00;100571.94;5072597;28;20045;-58
2022/09/09 07:49:40;;;;;;;10.38;3.08;;;;;;;17.47;100.00;100575.53;5073652;28;20079;-59
2022/09/09 07:52:08;;;;;;;9.57;2.92;;;;;;;17.57;100.00;100581.56;5073653;28;20049;-59
2022/09/09 07:54:37;;;;;;;8.90;2.72;;;;;;;17.70;100.00;100583.88;5073572;28;20135;-60
2022/09/09 07:57:05;;;;;;;7.97;2.35;;;;;;;17.66;100.00;100586.00;5073649;28;20044;-61
2022/09/09 07:59:34;;;;;;;9.48;2.72;;;;;;;17.51;100.00;100584.88;5073323;28;20446;-59
2022/09/09 08:02:02;;;;;;;9.18;2.22;;;;;;;17.65;100.00;100592.28;5105825;28;20055;-59
2022/09/09 08:04:31;;;;;;;14.10;2.78;;;;;;;17.85;100.00;100595.63;5073299;28;20095;-59
2022/09/09 08:07:00;;;;;;;10.85;2.47;;;;;;;17.90;100.00;100592.50;5072060;28;20087;-58
2022/09/09 08:09:32;;;;;;;10.80;2.65;;;;;;;18.01;100.00;100589.66;5073282;28;20377;-61
2022/09/09 08:12:00;;;;;;;8.13;2.17;;;;;;;18.07;100.00;100594.31;5073173;28;20047;-58
2022/09/09 08:14:29;;;;;;;8.60;2.05;;;;;;;18.00;100.00;100590.63;5073117;28;20387;-58
2022/09/09 08:16:59;;;;;;;10.70;2.75;;;;;;;18.08;100.00;100596.00;5073483;28;20033;-58
2022/09/09 08:19:29;;;;;;;10.68;2.33;;;;;;;18.03;100.00;100597.47;5073143;28;20526;-59
2022/09/09 08:21:57;;;;;;;10.52;2.40;;;;;;;17.93;100.00;100594.03;5073132;28;20048;-60
2022/09/09 08:24:25;;;;;;;7.18;2.58;;;;;;;17.83;100.00;100592.31;5072960;28;20053;-59
2022/09/09 08:26:53;;;;;;;6.40;1.83;;;;;;;17.83;100.00;100592.31;5072885;28;21916;-58
2022/09/09 08:29:21;;;;;;;10.20;2.33;;;;;;;17.87;100.00;100593.66;5072927;28;20518;-59
2022/09/09 08:31:52;;;;;;;11.85;2.17;;;;;;;17.78;100.00;100591.91;5072741;28;20102;-59
2022/09/09 08:34:22;;;;;;;8.63;1.98;;;;;;;17.96;100.00;100593.75;5072825;28;20094;-59
2022/09/09 08:36:52;;;;;;;10.90;1.95;;;;;;;18.04;100.00;100599.97;5071407;28;20049;-58
2022/09/09 08:39:21;;;;;;;7.25;2.03;;;;;;;18.08;100.00;100595.19;5072731;28;20041;-60
2022/09/09 08:42:14;;;;;;;8.93;2.03;;;;;;;18.10;100.00;100605.66;5072640;28;20106;-59
2022/09/09 08:45:04;;;;;;;8.63;2.00;;;;;;;18.10;100.00;100603.84;5072902;28;20538;-58
2022/09/09 08:47:45;;;;;;;7.60;1.92;;;;;;;18.01;100.00;100608.25;5072641;28;20564;-58
2022/09/09 08:50:24;;;;;;;8.85;2.28;;;;;;;18.07;100.00;100609.47;5072567;28;20087;-60
2022/09/09 08:53:00;;;;;;;9.07;2.47;;;;;;;17.97;100.00;100608.72;5072640;28;20044;-60
2022/09/09 08:55:38;;;;;;;10.38;2.10;;;;;;;18.02;100.00;100609.91;5072401;28;20409;-60
2022/09/09 08:58:13;;;;;;;7.93;1.83;;;;;;;18.00;100.00;100603.94;5072505;28;20561;-59
2022/09/09 09:00:53;;;;;;;11.38;2.30;;;;;;;17.97;100.00;100606.06;5072546;28;20468;-59
2022/09/09 09:03:29;;;;;;;6.68;2.00;;;;;;;18.08;100.00;100611.16;5072470;28;20538;-61
2022/09/09 09:06:06;;;;;;;8.82;1.95;;;;;;;18.15;100.00;100611.38;5072424;28;20462;-61
2022/09/09 09:08:45;;;;;;;7.95;2.30;;;;;;;18.12;100.00;100614.31;5072180;28;20048;-60
2022/09/09 09:11:13;;;;;;;7.45;1.67;;;;;;;18.28;100.00;100622.41;5072271;28;20407;-59
2022/09/09 09:13:46;;;;;;;10.70;2.00;;;;;;;18.36;100.00;100624.31;5072405;28;20127;-59
2022/09/09 09:16:23;;;;;;;11.55;2.10;;;;;;;18.41;100.00;100625.50;5105245;28;20060;-60
2022/09/09 09:18:54;;;;;;;7.55;1.98;;;;;;;18.42;100.00;100618.38;5072311;28;20094;-59
2022/09/09 09:21:35;;;;;;;8.77;1.65;;;;;;;18.46;100.00;100625.06;5104697;28;20074;-59
2022/09/09 09:24:09;;;;;;;7.93;1.90;;;;;;;18.40;100.00;100623.81;5072051;28;20511;-61
2022/09/09 09:26:37;;;;;;;11.40;2.13;;;;;;;18.52;100.00;100620.91;5072124;28;20087;-58
2022/09/09 09:29:11;;;;;;;6.82;1.73;;;;;;;18.52;100.00;100619.09;5072078;28;20032;-60
2022/09/09 09:31:39;;;;;;;7.22;1.77;;;;;;;18.54;100.00;100629.56;5072455;28;20062;-58
2022/09/09 09:34:10;;;;;;;8.57;1.60;;;;;;;18.62;100.00;100623.47;5072051;28;20392;-60
2022/09/09 09:36:45;;;;;;;9.80;1.60;;;;;;;18.65;100.00;100612.50;5072002;28;20044;-59
2022/09/09 09:39:24;;;;;;;7.45;1.48;;;;;;;18.61;100.00;100612.00;5070878;28;20068;-59
2022/09/09 09:42:14;;;;;;;8.77;2.00;;;;;;;18.72;100.00;100616.22;5071961;28;20091;-60
2022/09/09 09:44:45;;;;;;;;;;;;;;;18.94;100.00;100613.97;5072610;28;20041;-60
2022/09/09 09:47:15;;;;;;;7.93;1.73;;;;;;;18.94;99.03;100622.84;5072005;28;19921;-60
2022/09/09 09:49:52;;;;;;;8.98;1.85;;;;;;;19.02;100.00;100598.88;5104283;28;20079;-61
2022/09/09 09:52:25;;;;;;;6.20;1.60;;;;;;;19.08;99.32;100611.53;5071902;28;20482;-59
2022/09/09 09:54:54;;;;;;;8.27;1.63;;;;;;;18.93;96.92;100621.16;5071879;28;20044;-61
2022/09/09 09:57:28;;;;;;;8.30;1.65;;;;;;;19.00;97.52;100611.50;5071777;28;20029;-58
2022/09/09 10:00:08;;;;;;;8.60;1.67;;;;;;;19.09;96.25;100607.88;5071863;28;20056;-59
2022/09/09 10:02:40;;;;;;;8.38;2.05;;;;;;;19.06;97.27;100605.56;5071645;28;20090;-60
2022/09/09 10:05:15;;;;;;;7.13;1.75;;;;;;;19.09;96.95;100604.41;5071802;28;20052;-60
2022/09/09 10:07:45;;;;;;;8.35;1.92;;;;;;;19.00;97.06;100611.50;5071328;28;20552;-60
2022/09/09 10:10:21;;;;;;;6.47;1.40;;;;;;;19.07;96.29;100603.72;5071857;28;20045;-59
2022/09/09 10:13:01;;;;;;;8.27;1.85;;;;;;;18.90;96.94;100614.31;5075582;28;20451;-60
2022/09/09 10:15:43;;;;;;;8.32;2.00;;;;;;;18.91;98.15;100617.84;5075336;28;20119;-59
2022/09/09 10:18:37;;;;;;;10.00;1.95;;;;;;;18.86;96.71;100625.44;5075416;28;20052;-59
2022/09/09 10:21:20;;;;;;;10.13;1.58;;;;;;;18.75;96.64;100618.56;5075461;28;20056;-60
2022/09/09 10:23:59;;;;;;;;;;;;;;;18.80;99.25;100620.72;5075917;28;20098;-61
2022/09/09 10:26:38;;;;;;;10.57;1.55;;;;;;;18.67;100.00;100611.34;5075362;28;20349;-60
2022/09/09 10:29:23;;;;;;;8.32;1.50;;;;;;;18.64;100.00;100614.34;5075255;28;20044;-59
2022/09/09 10:32:03;;;;;;;8.07;1.52;;;;;;;18.66;100.00;100615.00;5075275;28;20040;-60
2022/09/09 10:34:50;;;;;;;8.50;1.83;;;;;;;18.56;100.00;100624.94;5075274;28;20422;-60
2022/09/09 10:37:35;;;;;;;9.35;1.83;;;;;;;18.64;99.94;100611.66;5075224;28;20048;-60
2022/09/09 10:40:20;;;;;;;7.68;1.92;;;;;;;18.72;99.96;100614.38;5074840;28;20110;-60
2022/09/09 10:42:49;;;;;;;7.28;1.90;;;;;;;18.81;97.64;100615.22;5074997;28;20369;-59
2022/09/09 10:45:22;;;;;;;11.95;2.15;;;;;;;18.72;99.56;100614.38;5074845;28;20052;-61
2022/09/09 10:48:01;;;;;;;;;;;;;;;18.67;97.39;100610.53;5075391;28;20488;-61
2022/09/09 10:50:43;;;;;;;10.40;1.65;;;;;;;18.78;97.63;100615.56;5074697;28;20369;-60
2022/09/09 10:53:51;;;;;;;9.65;1.80;;;;;;;18.79;98.22;100613.72;5074740;28;20617;-61
2022/09/09 10:56:23;;;;;;;8.70;1.70;;;;;;;18.83;98.80;100607.94;5073582;28;20048;-59
2022/09/09 10:58:57;;;;;;;10.05;2.05;;;;;;;18.98;97.71;100612.66;5074883;28;20068;-60
2022/09/09 11:01:30;;;;;;;7.20;1.60;;;;;;;19.11;96.82;100607.72;5074973;28;20124;-60
2022/09/09 11:04:14;;;;;;;9.07;1.52;;;;;;;19.07;97.63;100606.38;5074602;28;20059;-59
2022/09/09 11:06:51;;;;;;;7.57;1.75;;;;;;;19.23;97.97;100600.28;5074621;28;20068;-60
2022/09/09 11:09:23;;;;;;;7.05;1.70;;;;;;;19.37;95.99;100602.31;5074769;28;20041;-61
2022/09/09 11:11:54;;;;;;;5.15;1.38;;;;;;;19.34;93.79;100602.63;5074248;28;20045;-60
2022/09/09 11:14:30;;;;;;;8.07;1.70;;;;;;;19.24;93.68;100608.09;5074504;28;20379;-62
2022/09/09 11:17:10;;;;;;;8.35;1.67;;;;;;;19.18;94.54;100605.25;5074462;28;20048;-59
2022/09/09 11:19:41;;;;;;;7.35;1.77;;;;;;;19.18;94.70;100602.59;5074472;28;20052;-60
2022/09/09 11:22:18;;;;;;;5.75;1.55;;;;;;;19.21;96.47;100607.59;5074151;28;20136;-59
2022/09/09 11:24:51;;;;;;;7.13;1.50;;;;;;;19.32;98.47;100612.63;5074204;28;20052;-60
2022/09/09 11:27:26;;;;;;;9.00;1.58;;;;;;;19.18;100.00;100611.44;5072879;28;20615;-60
2022/09/09 11:30:20;;;;;;;6.60;1.58;;;;;;;19.27;100.00;100614.13;5074236;28;20045;-60
2022/09/09 11:33:47;;;;;;;5.90;1.50;;;;;;;19.35;100.00;100614.16;5074353;28;20406;-61
2022/09/09 11:36:35;;;;;;;5.95;1.52;;;;;;;19.36;100.00;100618.44;5068570;28;20053;-60
2022/09/09 11:39:18;;;;;;;6.90;1.70;;;;;;;19.35;100.00;100624.81;5074132;28;20040;-59
2022/09/09 11:41:46;;;;;;;6.07;1.50;;;;;;;18.92;100.00;100624.81;5073957;28;20102;-60